createdAt,value
2022-12-25T00:03:56.772Z,11.74
2022-12-25T00:08:58.226Z,11.84
2022-12-25T00:13:59.528Z,11.99
2022-12-25T00:19:01.209Z,12.09
2022-12-25T00:24:03.449Z,12.16
2022-12-25T00:29:04.901Z,12.20
2022-12-25T00:34:06.249Z,12.21
2022-12-25T00:39:07.639Z,12.19
2022-12-25T00:44:11.209Z,12.15
2022-12-25T00:49:13.399Z,12.07
2022-12-25T00:54:14.915Z,12.10
2022-12-25T00:59:16.266Z,12.14
2022-12-25T01:04:17.606Z,12.05
2022-12-25T01:09:37.609Z,12.10
2022-12-25T01:14:38.942Z,12.13
2022-12-25T01:19:40.308Z,12.14
2022-12-25T01:24:45.389Z,12.12
2022-12-25T01:29:46.856Z,12.19
2022-12-25T01:34:53.731Z,12.18
2022-12-25T01:39:57.202Z,12.21
2022-12-25T01:45:44.289Z,12.22
2022-12-25T01:50:49.880Z,12.22
2022-12-25T01:55:55.069Z,12.23
2022-12-25T02:00:56.507Z,12.19
2022-12-25T02:05:59.220Z,12.17
2022-12-25T02:11:00.546Z,12.21
2022-12-25T02:16:13.625Z,12.24
2022-12-25T02:21:48.858Z,12.24
2022-12-25T02:26:59.222Z,12.23
2022-12-25T02:32:31.775Z,12.22
2022-12-25T02:37:42.018Z,12.19
2022-12-25T02:43:20.387Z,12.16
2022-12-25T02:48:42.250Z,12.16
2022-12-25T02:54:04.631Z,12.10
2022-12-25T02:59:26.601Z,12.20
2022-12-25T03:04:48.210Z,12.21
2022-12-25T03:10:15.483Z,12.18
2022-12-25T03:15:37.501Z,12.18
2022-12-25T03:20:57.806Z,12.24
2022-12-25T03:26:17.636Z,12.23
2022-12-25T03:31:33.565Z,12.19
2022-12-25T03:37:06.973Z,12.25
2022-12-25T03:42:27.648Z,12.23
2022-12-25T03:47:52.558Z,12.22
2022-12-25T03:53:14.455Z,12.20
2022-12-25T03:58:39.812Z,12.27
2022-12-25T04:03:59.697Z,12.31
2022-12-25T04:09:19.772Z,12.34
2022-12-25T04:14:39.771Z,12.33
2022-12-25T04:19:59.756Z,12.35
2022-12-25T04:25:39.460Z,12.35
2022-12-25T04:30:59.483Z,12.37
2022-12-25T04:36:09.826Z,12.36
2022-12-25T04:41:12.759Z,12.32
2022-12-25T04:46:14.120Z,12.28
2022-12-25T04:51:23.497Z,12.21
2022-12-25T04:56:24.922Z,12.20
2022-12-25T05:01:26.436Z,12.20
2022-12-25T05:06:27.985Z,12.18
2022-12-25T05:11:29.327Z,12.19
2022-12-25T05:16:30.773Z,12.22
2022-12-25T05:21:32.235Z,12.21
2022-12-25T05:26:33.544Z,12.19
2022-12-25T05:31:34.973Z,12.18
2022-12-25T05:36:36.424Z,12.17
2022-12-25T05:41:37.807Z,12.19
2022-12-25T05:46:39.252Z,12.18
2022-12-25T05:51:40.644Z,12.09
2022-12-25T05:56:42.175Z,12.10
2022-12-25T06:01:43.733Z,12.00
2022-12-25T06:06:45.136Z,12.01
2022-12-25T06:11:46.572Z,12.02
2022-12-25T06:16:52.121Z,12.01
2022-12-25T06:21:54.701Z,11.99
2022-12-25T06:26:56.092Z,11.95
2022-12-25T06:31:58.812Z,11.95
2022-12-25T06:37:00.230Z,11.93
2022-12-25T06:42:01.613Z,11.93
2022-12-25T06:47:02.991Z,11.89
2022-12-25T06:52:04.426Z,11.93
2022-12-25T06:57:05.755Z,11.95
2022-12-25T07:02:18.794Z,11.96
2022-12-25T07:07:21.408Z,11.93
2022-12-25T07:12:23.731Z,11.90
2022-12-25T07:17:25.172Z,11.91
2022-12-25T07:22:29.085Z,11.93
2022-12-25T07:27:30.572Z,11.96
2022-12-25T07:32:32.501Z,12.01
2022-12-25T07:37:34.010Z,12.04
2022-12-25T07:42:35.435Z,12.04
2022-12-25T07:47:40.015Z,12.05
2022-12-25T07:52:43.560Z,11.99
2022-12-25T07:57:45.452Z,12.00
2022-12-25T08:02:50.115Z,11.97
2022-12-25T08:07:57.658Z,11.92
2022-12-25T08:12:59.629Z,11.96
2022-12-25T08:18:01.221Z,12.06
2022-12-25T08:23:04.166Z,12.13
2022-12-25T08:28:05.856Z,12.17
2022-12-25T08:33:07.518Z,12.28
2022-12-25T08:38:09.002Z,12.37
2022-12-25T08:43:10.546Z,12.44
2022-12-25T08:48:12.101Z,12.27
2022-12-25T08:53:14.089Z,12.30
2022-12-25T08:58:16.607Z,12.38
2022-12-25T09:03:18.147Z,12.39
2022-12-25T09:08:20.208Z,12.35
2022-12-25T09:13:21.632Z,12.41
2022-12-25T09:18:25.651Z,12.40
2022-12-25T09:23:28.907Z,12.49
2022-12-25T09:28:30.952Z,12.50
2022-12-25T09:33:32.569Z,12.57
2022-12-25T09:38:34.764Z,12.62
2022-12-25T09:43:42.258Z,12.60
2022-12-25T09:48:47.995Z,12.62
2022-12-25T09:53:58.601Z,12.67
2022-12-25T09:59:03.165Z,12.71
2022-12-25T10:04:51.039Z,12.69
2022-12-25T10:10:36.725Z,12.67
2022-12-25T10:16:16.128Z,12.76
2022-12-25T10:21:18.899Z,12.84
2022-12-25T10:26:22.759Z,12.92
2022-12-25T10:31:27.975Z,12.99
2022-12-25T10:36:30.801Z,13.00
2022-12-25T10:41:53.941Z,13.09
2022-12-25T10:46:58.195Z,13.08
2022-12-25T10:52:00.303Z,13.36
2022-12-25T10:57:16.583Z,13.26
2022-12-25T11:02:25.125Z,13.10
2022-12-25T11:07:27.161Z,13.24
2022-12-25T11:12:32.863Z,13.26
2022-12-25T11:17:35.930Z,13.19
2022-12-25T11:22:37.573Z,13.35
2022-12-25T11:27:39.052Z,13.52
2022-12-25T11:32:52.380Z,13.61
2022-12-25T11:37:54.079Z,13.57
2022-12-25T11:43:22.133Z,13.61
2022-12-25T11:48:32.894Z,13.62
2022-12-25T11:53:49.213Z,13.73
2022-12-25T11:59:18.578Z,13.71
2022-12-25T12:04:52.216Z,13.75
2022-12-25T12:10:21.523Z,13.64
2022-12-25T12:15:43.555Z,13.75
2022-12-25T12:20:46.297Z,13.86
2022-12-25T12:25:48.385Z,13.79
2022-12-25T12:31:16.576Z,13.69
2022-12-25T12:36:29.223Z,13.60
2022-12-25T12:41:47.676Z,13.67
2022-12-25T12:46:57.212Z,13.86
2022-12-25T12:52:24.845Z,13.91
2022-12-25T12:57:29.815Z,13.88
2022-12-25T13:02:43.535Z,13.93
2022-12-25T13:07:53.981Z,13.99
2022-12-25T13:13:00.646Z,13.96
2022-12-25T13:18:06.190Z,13.93
2022-12-25T13:23:35.256Z,13.82
2022-12-25T13:28:37.314Z,13.84
2022-12-25T13:33:40.911Z,13.84
2022-12-25T13:38:47.030Z,13.87
2022-12-25T13:43:49.277Z,13.85
2022-12-25T13:49:00.216Z,13.83
2022-12-25T13:54:06.755Z,13.77
2022-12-25T13:59:16.163Z,13.83
2022-12-25T14:04:23.924Z,13.80
2022-12-25T14:09:25.765Z,13.78
2022-12-25T14:14:27.643Z,13.76
2022-12-25T14:19:34.207Z,13.71
2022-12-25T14:24:35.840Z,13.63
2022-12-25T14:29:40.253Z,13.53
2022-12-25T14:34:44.172Z,13.51
2022-12-25T14:39:57.282Z,13.45
2022-12-25T14:45:26.448Z,13.29
2022-12-25T14:50:32.233Z,13.38
2022-12-25T14:55:37.252Z,13.40
2022-12-25T15:00:39.773Z,13.45
2022-12-25T15:05:41.312Z,13.45
2022-12-25T15:11:01.031Z,13.43
2022-12-25T15:16:14.356Z,13.36
2022-12-25T15:21:21.919Z,13.36
2022-12-25T15:26:23.747Z,13.30
2022-12-25T15:31:33.789Z,13.19
2022-12-25T15:36:35.445Z,13.15
2022-12-25T15:41:56.750Z,13.12
2022-12-25T15:47:01.726Z,13.05
2022-12-25T15:52:04.505Z,13.01
2022-12-25T15:57:14.265Z,12.98
2022-12-25T16:02:18.977Z,12.88
2022-12-25T16:07:23.529Z,12.87
2022-12-25T16:12:25.514Z,12.84
2022-12-25T16:17:27.285Z,12.78
2022-12-25T16:22:28.937Z,12.68
2022-12-25T16:27:30.453Z,12.59
2022-12-25T16:32:31.919Z,12.53
2022-12-25T16:37:34.941Z,12.46
2022-12-25T16:42:37.402Z,12.39
2022-12-25T16:47:38.903Z,12.32
2022-12-25T16:52:40.583Z,12.17
2022-12-25T16:57:42.108Z,12.15
2022-12-25T17:02:43.994Z,12.20
2022-12-25T17:07:47.000Z,12.13
2022-12-25T17:12:48.522Z,12.09
2022-12-25T17:17:49.969Z,12.05
2022-12-25T17:22:51.616Z,12.01
2022-12-25T17:27:53.285Z,11.97
2022-12-25T17:32:55.219Z,11.84
2022-12-25T17:37:56.769Z,11.88
2022-12-25T17:42:58.312Z,11.88
2022-12-25T17:47:59.856Z,11.71
2022-12-25T17:53:03.488Z,11.71
2022-12-25T17:58:05.259Z,11.82
2022-12-25T18:03:11.547Z,11.90
2022-12-25T18:08:14.619Z,11.84
2022-12-25T18:13:16.150Z,11.87
2022-12-25T18:18:17.737Z,11.96
2022-12-25T18:23:20.263Z,11.98
2022-12-25T18:28:21.784Z,11.98
2022-12-25T18:33:23.288Z,12.00
2022-12-25T18:38:24.802Z,11.99
2022-12-25T18:43:53.960Z,12.01
2022-12-25T18:48:55.240Z,12.01
2022-12-25T18:53:57.258Z,12.04
2022-12-25T18:59:00.522Z,12.06
2022-12-25T19:04:05.706Z,12.08
2022-12-25T19:09:10.855Z,12.07
2022-12-25T19:14:12.531Z,12.10
2022-12-25T19:19:14.730Z,12.16
2022-12-25T19:24:16.197Z,12.25
2022-12-25T19:29:17.658Z,12.34
2022-12-25T19:34:19.173Z,12.42
2022-12-25T19:39:20.704Z,12.45
2022-12-25T19:44:22.206Z,12.44
2022-12-25T19:49:24.093Z,12.53
2022-12-25T19:54:25.812Z,12.58
2022-12-25T19:59:27.396Z,12.62
2022-12-25T20:04:28.946Z,12.62
2022-12-25T20:09:31.174Z,12.69
2022-12-25T20:14:32.691Z,12.71
2022-12-25T20:19:34.532Z,12.73
2022-12-25T20:24:36.261Z,12.69
2022-12-25T20:29:37.888Z,12.67
2022-12-25T20:34:39.423Z,12.71
2022-12-25T20:39:40.933Z,12.73
2022-12-25T20:44:44.913Z,12.69
2022-12-25T20:49:47.503Z,12.70
2022-12-25T20:54:49.489Z,12.68
2022-12-25T20:59:54.560Z,12.64
2022-12-25T21:04:56.018Z,12.66
2022-12-25T21:09:57.808Z,12.65
2022-12-25T21:14:59.387Z,12.66
2022-12-25T21:20:00.934Z,12.59
2022-12-25T21:25:02.593Z,12.63
2022-12-25T21:30:14.913Z,12.63
2022-12-25T21:35:17.207Z,12.64
2022-12-25T21:40:18.668Z,12.69
2022-12-25T21:45:20.260Z,12.72
2022-12-25T21:50:40.778Z,12.70
2022-12-25T21:55:43.290Z,12.78
2022-12-25T22:00:44.885Z,12.77
2022-12-25T22:06:08.003Z,12.79
2022-12-25T22:11:32.520Z,12.83
2022-12-25T22:16:52.652Z,12.88
2022-12-25T22:27:11.546Z,13.03
2022-12-25T22:32:15.014Z,13.07
2022-12-25T22:37:18.304Z,13.12
2022-12-25T22:42:19.967Z,13.16
2022-12-25T22:47:25.189Z,13.19
2022-12-25T22:57:43.192Z,13.12
2022-12-25T23:02:52.591Z,13.09
2022-12-25T23:07:54.354Z,13.11
2022-12-25T23:13:14.263Z,13.12
2022-12-25T23:18:41.347Z,13.07
2022-12-25T23:24:03.093Z,13.10
2022-12-25T23:29:23.176Z,13.12
2022-12-25T23:34:24.925Z,13.09
2022-12-25T23:39:27.705Z,13.02
2022-12-25T23:49:53.318Z,13.03
2022-12-25T23:54:56.062Z,13.09
2022-12-25T23:59:57.670Z,13.11
